Time;durP1;ratioP1;P1;durP2;ratioP2;P2;SDS_P1;SDS_P2;PMS_P1;PMS_P2;Temp;Humidity;BMP_temperature;BMP_pressure;BME280_temperature;BME280_humidity;BME280_pressure;Samples;Min_cycle;Max_cycle;Signal;HPM_P1;HPM_P2
2023/11/07 00:02:16;;;;;;;2.72;0.40;;;;;;;11.90;94.17;99496.75;5011851;28;20034;-69
2023/11/07 00:04:42;;;;;;;1.10;0.30;;;;;;;11.88;94.15;99498.84;5010551;28;20037;-70
2023/11/07 00:07:09;;;;;;;2.67;0.32;;;;;;;11.76;94.19;99490.78;5012489;28;20030;-69
2023/11/07 00:09:35;;;;;;;1.42;0.45;;;;;;;11.93;94.01;99514.31;5010737;28;20025;-70
2023/11/07 00:12:02;;;;;;;3.63;0.40;;;;;;;11.93;93.92;99506.25;5009897;28;20095;-69
2023/11/07 00:14:28;;;;;;;1.75;0.55;;;;;;;11.94;93.81;99510.56;5010170;28;20034;-70
2023/11/07 00:16:53;;;;;;;1.38;0.30;;;;;;;11.94;93.65;99521.34;5011841;28;20079;-70
2023/11/07 00:19:18;;;;;;;4.15;0.40;;;;;;;11.85;93.61;99507.41;5011403;28;20034;-70
2023/11/07 00:21:44;;;;;;;2.72;0.50;;;;;;;11.93;93.65;99519.72;5011861;28;20022;-70
2023/11/07 00:24:09;;;;;;;1.38;0.30;;;;;;;11.88;94.04;99517.72;5018092;28;20089;-70
2023/11/07 00:26:35;;;;;;;3.50;0.45;;;;;;;11.89;93.70;99516.69;5010589;28;20036;-69
2023/11/07 00:29:00;;;;;;;2.08;0.38;;;;;;;11.83;93.70;99514.09;5011835;28;20028;-69
2023/11/07 00:31:26;;;;;;;2.80;0.40;;;;;;;11.90;93.54;99525.59;4994329;28;20076;-69
2023/11/07 00:33:51;;;;;;;3.80;0.45;;;;;;;11.83;93.73;99517.59;5014673;28;20030;-69
2023/11/07 00:36:17;;;;;;;2.95;0.43;;;;;;;11.83;93.18;99517.59;5013929;28;20030;-70
2023/11/07 00:38:43;;;;;;;5.45;0.52;;;;;;;11.90;93.23;99528.28;5015767;28;20053;-70
2023/11/07 00:41:08;;;;;;;4.40;0.40;;;;;;;11.92;93.44;99532.38;5011307;28;20477;-70
2023/11/07 00:43:37;;;;;;;2.42;0.40;;;;;;;11.85;92.85;99514.69;5009878;28;20034;-70
2023/11/07 00:46:03;;;;;;;2.35;0.45;;;;;;;11.98;92.63;99541.38;5009376;28;20041;-70
2023/11/07 00:48:29;;;;;;;1.80;0.40;;;;;;;11.98;92.75;99539.50;5009325;28;20018;-70
2023/11/07 00:50:54;;;;;;;0.90;0.47;;;;;;;11.94;92.74;99542.91;5009793;28;20053;-70
2023/11/07 00:53:21;;;;;;;2.25;0.40;;;;;;;11.96;92.68;99543.50;5010981;28;20061;-70
2023/11/07 00:55:46;;;;;;;1.13;0.40;;;;;;;11.97;92.68;99545.94;5009564;28;20144;-70
2023/11/07 00:58:12;;;;;;;2.38;0.50;;;;;;;11.85;92.58;99538.94;5010948;28;20092;-70
2023/11/07 01:00:37;;;;;;;1.70;0.55;;;;;;;11.96;93.00;99548.91;5011083;28;20509;-70
2023/11/07 01:03:03;;;;;;;3.17;0.60;;;;;;;11.85;92.97;99536.25;5011554;28;20033;-70
2023/11/07 01:05:29;;;;;;;3.58;0.50;;;;;;;11.89;93.42;99542.81;5010652;28;20117;-70
2023/11/07 01:07:54;;;;;;;2.00;0.52;;;;;;;11.93;93.33;99550.19;5010914;28;20026;-70
2023/11/07 01:10:20;;;;;;;2.60;0.70;;;;;;;11.92;93.44;99551.25;5010986;28;20052;-70
2023/11/07 01:12:45;;;;;;;1.63;0.60;;;;;;;11.89;93.75;99548.22;5010292;28;20026;-70
2023/11/07 01:15:11;;;;;;;2.25;0.65;;;;;;;11.95;93.56;99558.03;5010535;28;20396;-70
2023/11/07 01:17:36;;;;;;;2.47;0.90;;;;;;;11.88;93.55;99535.78;5012533;28;20477;-70
2023/11/07 01:20:06;;;;;;;3.60;0.80;;;;;;;11.99;93.90;99560.00;5018187;28;20100;-70
2023/11/07 01:22:32;;;;;;;2.30;0.80;;;;;;;11.91;93.69;99548.78;4994529;28;20030;-70
2023/11/07 01:24:57;;;;;;;1.77;0.70;;;;;;;12.03;94.03;99559.53;5031942;28;20040;-70
2023/11/07 01:27:24;;;;;;;1.73;0.60;;;;;;;12.06;93.85;99559.06;5011885;28;20083;-69
2023/11/07 01:29:50;;;;;;;2.05;0.65;;;;;;;12.06;94.00;99562.56;5011430;28;20480;-70
2023/11/07 01:32:16;;;;;;;5.22;0.90;;;;;;;12.11;94.03;99565.34;5009964;28;20041;-70
2023/11/07 01:34:41;;;;;;;1.98;0.70;;;;;;;12.05;94.43;99558.22;5011418;28;20456;-70
2023/11/07 01:37:06;;;;;;;3.10;1.08;;;;;;;12.09;94.74;99558.59;5008861;28;20045;-70
2023/11/07 01:39:32;;;;;;;4.05;0.90;;;;;;;11.99;94.69;99553.81;5009081;28;20068;-69
2023/11/07 01:41:57;;;;;;;5.10;1.23;;;;;;;12.03;95.17;99571.13;4993134;28;20134;-70
2023/11/07 01:44:28;;;;;;;3.95;0.90;;;;;;;12.04;95.76;99577.34;5010905;28;20026;-70
2023/11/07 01:46:54;;;;;;;3.40;0.98;;;;;;;12.05;95.34;99578.97;5010838;28;20022;-70
2023/11/07 01:49:22;;;;;;;3.05;0.98;;;;;;;12.12;95.63;99585.03;5011742;28;20114;-70
2023/11/07 01:51:48;;;;;;;3.90;1.00;;;;;;;12.13;95.36;99592.09;5029511;28;20045;-70
2023/11/07 01:54:13;;;;;;;5.40;1.73;;;;;;;12.17;95.42;99598.66;5013021;28;20144;-70
2023/11/07 01:56:39;;;;;;;5.82;1.00;;;;;;;12.16;95.61;99592.44;5018761;28;20042;-71
2023/11/07 01:59:04;;;;;;;4.57;1.10;;;;;;;12.14;95.68;99591.84;5014350;28;20030;-70
2023/11/07 02:01:32;;;;;;;2.95;0.82;;;;;;;12.17;95.90;99591.38;5014735;28;20029;-70
2023/11/07 02:03:58;;;;;;;4.75;0.93;;;;;;;12.17;95.67;99594.06;5020328;28;20057;-70
2023/11/07 02:06:23;;;;;;;4.18;1.15;;;;;;;12.17;95.81;99594.06;5032930;28;20026;-70
2023/11/07 02:08:49;;;;;;;5.22;1.00;;;;;;;12.18;96.11;99592.19;5022921;28;20473;-70
2023/11/07 02:11:14;;;;;;;4.53;1.35;;;;;;;12.19;96.18;99585.75;5013144;28;20030;-70
2023/11/07 02:13:40;;;;;;;4.40;1.20;;;;;;;12.08;96.13;99563.13;5014533;28;20072;-69
2023/11/07 02:16:06;;;;;;;6.57;1.33;;;;;;;12.16;96.46;99584.34;5013780;28;20489;-70
2023/11/07 02:18:31;;;;;;;2.58;1.20;;;;;;;12.16;96.97;99580.84;5013940;28;20040;-70
2023/11/07 02:20:56;;;;;;;3.78;1.88;;;;;;;12.14;97.14;99580.25;5014004;28;20180;-70
2023/11/07 02:23:25;;;;;;;6.55;1.77;;;;;;;12.16;97.42;99576.25;5012769;28;20030;-70
2023/11/07 02:25:51;;;;;;;5.45;1.67;;;;;;;12.17;97.50;99583.28;5014089;28;20037;-70
2023/11/07 02:28:17;;;;;;;4.72;2.05;;;;;;;12.16;97.48;99580.84;5013559;28;20034;-70
2023/11/07 02:30:44;;;;;;;6.60;2.28;;;;;;;12.09;97.94;99570.19;5013380;28;20033;-70
2023/11/07 02:33:09;;;;;;;4.70;2.25;;;;;;;12.09;97.72;99578.28;5013190;28;20026;-70
2023/11/07 02:35:35;;;;;;;4.85;2.10;;;;;;;12.04;97.80;99578.16;5012273;28;20493;-69
2023/11/07 02:38:00;;;;;;;6.38;2.40;;;;;;;11.99;98.25;99581.59;5012736;28;20141;-70
2023/11/07 02:40:26;;;;;;;6.85;2.30;;;;;;;11.87;98.26;99569.19;5012085;28;20065;-70
2023/11/07 02:42:51;;;;;;;9.45;2.50;;;;;;;11.93;98.53;99581.72;5013341;28;20030;-70
2023/11/07 02:45:18;;;;;;;4.85;2.05;;;;;;;11.55;98.50;99536.41;5012049;28;20057;-70
2023/11/07 02:47:44;;;;;;;6.65;2.30;;;;;;;11.87;98.68;99583.47;5013076;28;20030;-70
2023/11/07 02:50:10;;;;;;;5.82;2.55;;;;;;;11.71;98.98;99568.81;5012948;28;20057;-70
2023/11/07 02:52:38;;;;;;;5.53;2.17;;;;;;;11.81;99.24;99588.97;5012037;28;20036;-70
2023/11/07 02:55:05;;;;;;;4.85;2.15;;;;;;;11.83;99.29;99594.94;5013239;28;20840;-70
2023/11/07 02:57:31;;;;;;;6.15;1.85;;;;;;;11.72;99.57;99588.50;5013179;28;20036;-70
2023/11/07 02:59:57;;;;;;;7.00;1.85;;;;;;;11.70;99.44;99586.06;5013274;28;20034;-70
2023/11/07 03:02:24;;;;;;;5.30;2.10;;;;;;;11.73;99.50;99601.75;5011707;28;20033;-70
2023/11/07 03:04:50;;;;;;;6.13;2.17;;;;;;;11.72;99.67;99597.44;5013451;28;20113;-70
2023/11/07 03:07:15;;;;;;;4.60;2.28;;;;;;;11.68;99.63;99593.53;5012471;28;20109;-70
2023/11/07 03:09:40;;;;;;;8.45;2.50;;;;;;;11.76;99.93;99601.28;5013231;28;20503;-70
2023/11/07 03:12:10;;;;;;;6.40;2.78;;;;;;;11.60;99.60;99576.94;5012006;28;20030;-70
2023/11/07 03:14:38;;;;;;;9.93;2.63;;;;;;;11.70;99.85;99599.53;5020156;28;20048;-70
2023/11/07 03:17:05;;;;;;;6.13;2.67;;;;;;;11.71;100.00;99605.72;5013951;28;20535;-70
2023/11/07 03:19:30;;;;;;;6.97;3.30;;;;;;;11.79;99.98;99612.63;5012122;28;20087;-70
2023/11/07 03:21:56;;;;;;;7.93;2.88;;;;;;;11.76;100.00;99603.97;5013520;28;20030;-70
2023/11/07 03:24:21;;;;;;;5.07;2.55;;;;;;;11.65;100.00;99588.63;4979307;28;20026;-70
2023/11/07 03:26:47;;;;;;;5.03;2.67;;;;;;;11.81;100.00;99607.84;5013017;28;20021;-70
2023/11/07 03:29:12;;;;;;;6.88;2.72;;;;;;;11.81;100.00;99607.84;5012431;28;20083;-70
2023/11/07 03:31:38;;;;;;;5.18;2.60;;;;;;;11.69;100.00;99587.13;5019977;28;20030;-70
2023/11/07 03:34:04;;;;;;;12.25;3.03;;;;;;;11.75;100.00;99605.03;5011578;28;20426;-70
2023/11/07 03:36:29;;;;;;;7.97;2.80;;;;;;;11.83;100.00;99603.03;5013128;28;20058;-70
2023/11/07 03:38:55;;;;;;;4.97;2.67;;;;;;;11.80;100.00;99601.63;5012749;28;20029;-70
2023/11/07 03:41:24;;;;;;;5.45;2.90;;;;;;;11.84;100.00;99610.06;5011556;28;20120;-70
2023/11/07 03:43:49;;;;;;;4.35;3.00;;;;;;;11.83;100.00;99611.13;4995119;28;20034;-70
2023/11/07 03:46:15;;;;;;;5.00;2.47;;;;;;;11.81;100.00;99615.91;5012283;28;20034;-70
2023/11/07 03:48:40;;;;;;;3.10;2.25;;;;;;;11.63;100.00;99598.84;5012151;28;20026;-70
2023/11/07 03:51:06;;;;;;;6.32;2.60;;;;;;;11.74;100.00;99613.34;5012622;28;20557;-70
2023/11/07 03:53:31;;;;;;;6.57;2.78;;;;;;;11.72;100.00;99613.59;5012580;28;20097;-70
2023/11/07 03:55:58;;;;;;;5.90;2.83;;;;;;;11.73;100.00;99609.84;5010722;28;20037;-71
2023/11/07 03:58:24;;;;;;;4.55;2.40;;;;;;;11.75;100.00;99609.59;5011784;28;20022;-70
2023/11/07 04:00:49;;;;;;;9.73;2.72;;;;;;;11.72;100.00;99610.91;5011873;28;20560;-70
2023/11/07 04:03:15;;;;;;;9.05;2.70;;;;;;;11.73;100.00;99615.22;5011825;28;20621;-70
2023/11/07 04:05:40;;;;;;;3.40;2.47;;;;;;;11.73;100.00;99609.03;5010721;28;20064;-70
2023/11/07 04:08:05;;;;;;;5.70;2.28;;;;;;;11.72;100.00;99612.75;5010658;28;20022;-70
2023/11/07 04:10:31;;;;;;;5.90;2.55;;;;;;;11.69;100.00;99619.47;5011083;28;20065;-70
2023/11/07 04:12:56;;;;;;;5.43;2.58;;;;;;;11.68;100.00;99614.28;5009695;28;20390;-71
2023/11/07 04:15:23;;;;;;;6.00;2.30;;;;;;;11.68;100.00;99619.69;5026696;28;20504;-69
2023/11/07 04:17:49;;;;;;;4.13;2.40;;;;;;;11.69;100.00;99608.69;5011460;28;20493;-69
2023/11/07 04:20:16;;;;;;;6.97;2.30;;;;;;;11.34;100.00;99557.50;5011064;28;20076;-70
2023/11/07 04:22:43;;;;;;;4.65;2.17;;;;;;;11.71;100.00;99614.63;5013309;28;20080;-70
2023/11/07 04:25:09;;;;;;;4.05;2.28;;;;;;;11.70;100.00;99610.31;5018627;28;20132;-70
2023/11/07 04:27:38;;;;;;;4.88;2.47;;;;;;;11.72;100.00;99618.97;5012639;28;20120;-69
2023/11/07 04:30:05;;;;;;;4.10;2.35;;;;;;;11.72;100.00;99616.28;5010045;28;20398;-69
2023/11/07 04:32:34;;;;;;;4.18;2.10;;;;;;;11.70;100.00;99625.66;5012112;28;20030;-69
2023/11/07 04:35:01;;;;;;;4.90;2.30;;;;;;;11.68;100.00;99630.44;5011548;28;20067;-69
2023/11/07 04:37:26;;;;;;;3.55;2.03;;;;;;;11.66;100.00;99630.69;5009569;28;20041;-69
2023/11/07 04:39:52;;;;;;;5.93;1.92;;;;;;;11.54;100.00;99600.25;5011959;28;20553;-69
2023/11/07 04:42:19;;;;;;;3.45;1.98;;;;;;;11.67;100.00;99615.34;5010402;28;20022;-70
2023/11/07 04:44:45;;;;;;;5.30;1.92;;;;;;;11.65;100.00;99620.97;5011162;28;20033;-69
2023/11/07 04:47:11;;;;;;;3.50;1.80;;;;;;;11.63;100.00;99611.50;5015684;28;20014;-69
2023/11/07 04:49:36;;;;;;;3.53;1.92;;;;;;;11.59;100.00;99616.53;5031831;28;20052;-70
2023/11/07 04:52:02;;;;;;;7.72;2.25;;;;;;;11.61;100.00;99611.72;5012157;28;20041;-69
2023/11/07 04:54:27;;;;;;;5.03;1.90;;;;;;;11.61;100.00;99617.09;5010110;28;20595;-70
2023/11/07 04:56:54;;;;;;;6.47;2.40;;;;;;;11.55;100.00;99617.22;5011971;28;20026;-69
2023/11/07 04:59:22;;;;;;;7.18;2.35;;;;;;;11.48;100.00;99614.66;5010305;28;20030;-69
2023/11/07 05:01:49;;;;;;;5.53;2.05;;;;;;;11.38;100.00;99617.09;5026012;28;20018;-69
2023/11/07 05:04:15;;;;;;;6.85;1.80;;;;;;;11.33;100.00;99611.59;5010806;28;20083;-69
2023/11/07 05:06:41;;;;;;;5.45;1.95;;;;;;;11.34;100.00;99618.63;5011278;28;20483;-70
2023/11/07 05:09:08;;;;;;;3.45;2.20;;;;;;;11.29;100.00;99628.22;5011123;28;20361;-69
2023/11/07 05:11:36;;;;;;;6.15;2.17;;;;;;;11.29;100.00;99624.69;5009430;28;20033;-71
2023/11/07 05:14:02;;;;;;;4.50;1.80;;;;;;;11.16;100.00;99598.84;5011276;28;20412;-70
2023/11/07 05:16:28;;;;;;;4.15;2.20;;;;;;;11.21;100.00;99619.66;5011773;28;20034;-70
2023/11/07 05:18:53;;;;;;;8.48;1.90;;;;;;;11.25;100.00;99618.94;5010802;28;20034;-71
2023/11/07 05:21:19;;;;;;;4.72;1.92;;;;;;;11.24;100.00;99622.72;5011222;28;20030;-70
2023/11/07 05:23:44;;;;;;;5.15;1.83;;;;;;;11.16;100.00;99623.06;5009773;28;20477;-71
2023/11/07 05:26:11;;;;;;;5.10;1.95;;;;;;;11.10;100.00;99617.78;5013982;28;20104;-69
2023/11/07 05:28:37;;;;;;;5.22;2.10;;;;;;;11.03;100.00;99631.34;5030176;28;20018;-70
2023/11/07 05:31:03;;;;;;;7.47;2.03;;;;;;;11.02;100.00;99637.75;5013513;28;20029;-69
2023/11/07 05:33:29;;;;;;;5.78;2.30;;;;;;;11.00;100.00;99635.31;5013197;28;20103;-69
2023/11/07 05:35:54;;;;;;;3.55;2.20;;;;;;;10.97;100.00;99637.66;5015463;28;20049;-70
2023/11/07 05:38:20;;;;;;;6.80;2.20;;;;;;;10.95;100.00;99637.03;4997308;28;20065;-70
2023/11/07 05:40:47;;;;;;;4.68;2.50;;;;;;;10.92;100.00;99630.25;5015487;28;20092;-69
2023/11/07 05:43:12;;;;;;;8.23;2.45;;;;;;;10.87;100.00;99630.13;5014564;28;20030;-69
2023/11/07 05:45:38;;;;;;;5.30;2.00;;;;;;;10.85;100.00;99636.78;5015204;28;20105;-69
2023/11/07 05:48:03;;;;;;;5.13;2.30;;;;;;;10.81;100.00;99634.56;5014135;28;20021;-69
2023/11/07 05:50:29;;;;;;;3.45;1.85;;;;;;;10.74;100.00;99638.41;5012942;28;20061;-69
2023/11/07 05:52:54;;;;;;;5.43;2.35;;;;;;;10.60;100.00;99642.31;5013631;28;20111;-69
2023/11/07 05:55:20;;;;;;;6.57;2.20;;;;;;;10.52;100.00;99646.13;5011747;28;20117;-70
2023/11/07 05:57:46;;;;;;;5.07;2.00;;;;;;;10.55;100.00;99643.00;5028043;28;20053;-69
2023/11/07 06:00:13;;;;;;;3.50;2.10;;;;;;;10.57;100.00;99654.34;5014573;28;20129;-70
2023/11/07 06:02:38;;;;;;;4.93;2.15;;;;;;;10.65;100.00;99655.91;5012400;28;20052;-70
2023/11/07 06:05:09;;;;;;;5.60;2.45;;;;;;;10.73;100.00;99655.59;5010774;28;20038;-71
2023/11/07 06:07:34;;;;;;;8.13;2.30;;;;;;;10.79;100.00;99655.50;5027673;28;20054;-70
2023/11/07 06:10:03;;;;;;;3.30;2.15;;;;;;;10.79;100.00;99652.81;5012220;28;20061;-70
2023/11/07 06:12:29;;;;;;;4.20;2.08;;;;;;;10.82;100.00;99654.19;5012533;28;20473;-70
2023/11/07 06:14:54;;;;;;;2.67;2.03;;;;;;;10.80;100.00;99659.00;5027697;28;20037;-70
2023/11/07 06:17:20;;;;;;;6.32;2.10;;;;;;;10.74;100.00;99657.22;5011992;28;20145;-71
2023/11/07 06:19:47;;;;;;;9.52;2.40;;;;;;;10.74;100.00;99658.03;5013771;28;20534;-70
2023/11/07 06:22:13;;;;;;;4.72;1.98;;;;;;;10.73;100.00;99658.28;5013771;28;20044;-70
2023/11/07 06:24:38;;;;;;;4.88;2.40;;;;;;;10.67;100.00;99645.75;5014720;28;20481;-71
2023/11/07 06:27:04;;;;;;;3.35;2.10;;;;;;;10.75;100.00;99664.25;5012805;28;20045;-70
2023/11/07 06:29:29;;;;;;;4.22;2.17;;;;;;;10.78;100.00;99661.91;5012437;28;20018;-70
2023/11/07 06:31:54;;;;;;;9.38;2.10;;;;;;;10.65;100.00;99648.66;5014186;28;20022;-70
2023/11/07 06:34:20;;;;;;;8.50;2.38;;;;;;;10.78;100.00;99664.59;5013165;28;20053;-70
2023/11/07 06:36:47;;;;;;;7.15;2.20;;;;;;;10.70;100.00;99647.97;5013452;28;20121;-70
2023/11/07 06:39:15;;;;;;;4.80;1.95;;;;;;;10.80;100.00;99661.69;5012999;28;20157;-70
2023/11/07 06:41:41;;;;;;;5.63;2.15;;;;;;;10.82;100.00;99664.97;5013256;28;20032;-70
2023/11/07 06:44:08;;;;;;;5.57;1.85;;;;;;;10.87;100.00;99669.69;5013469;28;20026;-70
2023/11/07 06:46:34;;;;;;;6.50;2.30;;;;;;;10.46;100.00;99606.69;5013557;28;20040;-70
2023/11/07 06:49:01;;;;;;;7.25;2.17;;;;;;;10.85;100.00;99669.91;5028330;28;20103;-71
2023/11/07 06:51:27;;;;;;;6.63;2.03;;;;;;;10.86;100.00;99684.16;5013264;28;20113;-70
2023/11/07 06:53:53;;;;;;;3.08;1.85;;;;;;;10.88;100.00;99679.38;5013391;28;20088;-70
2023/11/07 06:56:19;;;;;;;5.03;2.20;;;;;;;10.93;100.00;99674.97;5013140;28;20477;-70
2023/11/07 06:58:45;;;;;;;5.75;2.10;;;;;;;11.01;100.00;99681.88;5028197;28;20029;-70
2023/11/07 07:01:13;;;;;;;8.82;2.55;;;;;;;11.13;100.00;99679.25;5012550;28;20030;-70
2023/11/07 07:03:39;;;;;;;7.10;2.88;;;;;;;11.18;100.00;99672.09;5022145;28;20038;-70
2023/11/07 07:06:05;;;;;;;6.88;2.60;;;;;;;11.25;100.00;99682.75;5025074;28;20038;-71
2023/11/07 07:08:31;;;;;;;5.25;2.40;;;;;;;11.11;100.00;99665.19;5010867;28;20137;-71
2023/11/07 07:10:57;;;;;;;5.35;2.58;;;;;;;11.24;100.00;99690.03;5011697;28;20116;-70
2023/11/07 07:13:24;;;;;;;8.68;3.17;;;;;;;11.21;100.00;99687.78;5010190;28;20457;-70
2023/11/07 07:15:50;;;;;;;9.43;3.05;;;;;;;11.20;100.00;99672.69;5011416;28;20030;-70
2023/11/07 07:18:22;;;;;;;10.43;3.47;;;;;;;11.17;100.00;99670.47;5010503;28;20076;-71
2023/11/07 07:20:48;;;;;;;9.98;4.20;;;;;;;11.35;100.00;99688.41;5012122;28;20469;-71
2023/11/07 07:23:14;;;;;;;11.30;3.25;;;;;;;11.40;100.00;99691.25;5012374;28;20029;-70
2023/11/07 07:25:40;;;;;;;7.00;3.10;;;;;;;11.42;100.00;99693.69;5027778;28;20096;-70
2023/11/07 07:28:06;;;;;;;6.82;3.33;;;;;;;11.47;100.00;99685.75;5012697;28;20022;-70
2023/11/07 07:30:32;;;;;;;10.40;3.33;;;;;;;11.51;100.00;99686.91;5012352;28;20045;-70
2023/11/07 07:32:59;;;;;;;13.68;3.63;;;;;;;11.58;100.00;99682.22;5012777;28;20100;-70
2023/11/07 07:35:29;;;;;;;5.03;3.38;;;;;;;11.61;100.00;99687.16;5027911;28;20080;-70
2023/11/07 07:37:55;;;;;;;9.13;4.10;;;;;;;11.66;100.00;99692.69;5012916;28;20100;-70
2023/11/07 07:40:25;;;;;;;8.13;4.20;;;;;;;11.74;100.00;99694.19;5012494;28;20029;-71
2023/11/07 07:42:53;;;;;;;11.32;3.83;;;;;;;11.68;100.00;99674.38;5012525;28;20036;-70
2023/11/07 07:45:21;;;;;;;7.60;3.88;;;;;;;11.86;100.00;99699.63;5011699;28;20485;-70
2023/11/07 07:47:47;;;;;;;6.55;3.60;;;;;;;11.90;100.00;99698.91;5011688;28;20400;-70
2023/11/07 07:50:14;;;;;;;11.13;4.18;;;;;;;11.94;100.00;99708.16;5012232;28;20054;-70
2023/11/07 07:52:47;;;;;;;10.50;4.07;;;;;;;12.00;100.00;99703.72;5011403;28;20476;-70
2023/11/07 07:55:13;;;;;;;8.40;4.03;;;;;;;12.06;100.00;99713.56;5012325;28;20037;-70
2023/11/07 07:57:39;;;;;;;9.00;3.83;;;;;;;12.11;100.00;99716.38;5012522;28;20041;-70
2023/11/07 08:00:24;;;;;;;8.85;3.63;;;;;;;12.12;100.00;99720.72;5012314;28;20026;-70
2023/11/07 08:02:50;;;;;;;;;;;;;;;12.21;100.00;99719.28;5012905;28;20060;-70
2023/11/07 08:05:17;;;;;;;8.13;3.28;;;;;;;12.19;100.00;99717.91;5012436;28;19909;-70
2023/11/07 08:07:45;;;;;;;7.32;3.63;;;;;;;12.25;100.00;99718.81;5019004;28;20033;-70
2023/11/07 08:10:19;;;;;;;11.25;3.60;;;;;;;12.30;100.00;99718.94;5012532;28;20477;-70
2023/11/07 08:12:46;;;;;;;9.52;3.50;;;;;;;12.18;100.00;99702.75;5029593;28;20030;-70
2023/11/07 08:15:12;;;;;;;8.48;3.67;;;;;;;12.28;100.00;99721.03;5012786;28;20034;-70
2023/11/07 08:17:37;;;;;;;9.55;3.50;;;;;;;12.37;100.00;99728.53;5018684;28;20022;-70
2023/11/07 08:20:14;;;;;;;11.00;3.90;;;;;;;12.30;100.00;99727.84;5012556;28;20132;-71
2023/11/07 08:22:44;;;;;;;7.55;3.75;;;;;;;12.29;100.00;99731.59;5011877;28;20030;-70
2023/11/07 08:25:11;;;;;;;9.02;3.83;;;;;;;12.35;100.00;99740.59;5011699;28;20025;-70
2023/11/07 08:27:41;;;;;;;10.15;3.83;;;;;;;12.31;100.00;99739.44;5010214;28;20489;-70
2023/11/07 08:30:12;;;;;;;8.02;3.80;;;;;;;12.44;100.00;99739.19;5026662;28;20136;-70
2023/11/07 08:32:44;;;;;;;7.72;4.10;;;;;;;12.51;100.00;99745.28;5010376;28;20138;-70
2023/11/07 08:35:17;;;;;;;9.88;4.32;;;;;;;12.44;100.00;99734.59;5010474;28;20532;-70
2023/11/07 08:37:47;;;;;;;13.77;4.37;;;;;;;12.41;100.00;99745.06;5011531;28;20038;-70
2023/11/07 08:40:16;;;;;;;10.52;3.95;;;;;;;12.43;100.00;99754.56;5026437;28;20036;-71
2023/11/07 08:42:43;;;;;;;12.20;4.32;;;;;;;12.43;100.00;99762.66;5011270;28;20091;-70
2023/11/07 08:45:15;;;;;;;10.95;4.63;;;;;;;12.54;100.00;99763.69;5011360;28;20025;-70
2023/11/07 08:47:56;;;;;;;7.88;3.75;;;;;;;12.48;100.00;99747.63;5011697;28;20405;-70
2023/11/07 08:50:22;;;;;;;8.43;3.55;;;;;;;12.57;100.00;99765.09;4995876;28;20065;-70
2023/11/07 08:52:49;;;;;;;8.50;3.80;;;;;;;12.64;100.00;99765.78;5010227;28;20018;-70
2023/11/07 08:55:16;;;;;;;6.85;3.20;;;;;;;12.69;100.00;99774.81;5026719;28;20058;-70
2023/11/07 08:57:44;;;;;;;10.38;3.42;;;;;;;12.72;100.00;99767.31;5017793;28;20021;-70
2023/11/07 09:00:12;;;;;;;9.40;3.88;;;;;;;12.69;100.00;99769.41;5030660;28;20127;-70
2023/11/07 09:02:41;;;;;;;8.48;3.83;;;;;;;12.77;100.00;99776.31;5011746;28;20109;-70
2023/11/07 09:05:07;;;;;;;10.57;3.60;;;;;;;12.77;100.00;99757.41;5011704;28;20117;-70
2023/11/07 09:07:35;;;;;;;8.32;3.70;;;;;;;12.86;100.00;99780.28;5011318;28;20105;-71
2023/11/07 09:10:01;;;;;;;8.57;3.90;;;;;;;12.58;100.00;99729.78;5011512;28;20038;-70
2023/11/07 09:12:27;;;;;;;12.50;4.05;;;;;;;12.79;100.00;99774.22;5012628;28;20033;-71
2023/11/07 09:14:53;;;;;;;8.88;3.67;;;;;;;12.90;100.00;99786.03;5011497;28;20029;-71
2023/11/07 09:17:18;;;;;;;7.95;3.55;;;;;;;12.99;100.00;99792.69;5009776;28;20033;-71
2023/11/07 09:19:44;;;;;;;5.38;3.20;;;;;;;13.03;100.00;99785.75;5009848;28;20428;-70
2023/11/07 09:22:10;;;;;;;7.40;3.20;;;;;;;13.12;100.00;99791.59;4993480;28;20032;-70
2023/11/07 09:24:36;;;;;;;7.60;2.97;;;;;;;13.00;100.00;99772.72;5009761;28;20037;-70
2023/11/07 09:27:04;;;;;;;6.85;2.95;;;;;;;13.11;100.00;99798.03;5010634;28;20036;-70
2023/11/07 09:29:29;;;;;;;7.13;2.92;;;;;;;13.05;100.00;99804.44;5011135;28;20160;-70
2023/11/07 09:31:55;;;;;;;5.45;2.90;;;;;;;12.98;100.00;99796.47;5010669;28;20049;-70
2023/11/07 09:34:24;;;;;;;7.32;3.40;;;;;;;12.95;100.00;99802.34;5010870;28;20042;-71
2023/11/07 09:36:49;;;;;;;7.18;3.05;;;;;;;12.96;100.00;99806.69;5010865;28;20026;-70
2023/11/07 09:39:15;;;;;;;6.32;2.72;;;;;;;12.92;100.00;99797.41;5010783;28;20036;-71
2023/11/07 09:41:42;;;;;;;6.60;2.90;;;;;;;12.97;100.00;99813.72;5026154;28;20057;-71
2023/11/07 09:44:13;;;;;;;7.53;3.45;;;;;;;13.07;100.00;99813.91;5011048;28;20489;-71
2023/11/07 09:46:41;;;;;;;9.23;2.90;;;;;;;13.09;100.00;99813.69;5011216;28;20033;-70
2023/11/07 09:49:12;;;;;;;7.47;3.10;;;;;;;13.11;100.00;99816.94;5011012;28;20050;-70
2023/11/07 09:51:38;;;;;;;7.78;3.20;;;;;;;13.15;100.00;99818.13;5010941;28;20071;-70
2023/11/07 09:54:06;;;;;;;7.32;3.20;;;;;;;13.20;100.00;99814.69;4993627;28;20035;-70
2023/11/07 09:56:39;;;;;;;6.60;3.38;;;;;;;13.23;100.00;99817.75;5010960;28;20036;-71
2023/11/07 09:59:49;;;;;;;5.97;3.22;;;;;;;13.33;100.00;99828.78;5009745;28;20030;-70
2023/11/07 10:02:15;;;;;;;9.52;3.83;;;;;;;13.32;100.00;99821.75;5009463;28;20029;-71
2023/11/07 10:04:42;;;;;;;8.50;3.70;;;;;;;13.37;100.00;99826.41;5010923;28;20400;-70
2023/11/07 10:07:07;;;;;;;7.15;3.42;;;;;;;13.49;100.00;99824.47;5010732;28;20032;-70
2023/11/07 10:09:33;;;;;;;5.78;3.33;;;;;;;13.57;100.00;99826.78;4992989;28;20356;-70
2023/11/07 10:12:00;;;;;;;7.95;3.70;;;;;;;13.51;100.00;99808.00;5012577;28;20030;-71
2023/11/07 10:14:26;;;;;;;5.38;3.40;;;;;;;13.68;100.00;99835.09;5013991;28;20041;-71
2023/11/07 10:16:54;;;;;;;11.57;3.55;;;;;;;13.75;100.00;99835.75;5013847;28;20038;-70
2023/11/07 10:19:22;;;;;;;5.18;3.10;;;;;;;13.77;100.00;99836.31;5013649;28;20021;-71
2023/11/07 10:21:48;;;;;;;7.85;3.28;;;;;;;13.72;100.00;99839.75;5029074;28;20489;-71
2023/11/07 10:24:14;;;;;;;6.72;3.28;;;;;;;13.72;99.91;99847.88;5013827;28;20477;-70
2023/11/07 10:26:58;;;;;;;5.50;3.30;;;;;;;13.68;99.36;99837.81;5013864;28;20026;-70
2023/11/07 10:29:25;;;;;;;5.30;3.13;;;;;;;13.77;99.10;99852.53;5013368;28;20477;-71
2023/11/07 10:32:02;;;;;;;7.15;3.58;;;;;;;13.78;98.82;99852.31;5023642;28;20037;-70
2023/11/07 10:34:28;;;;;;;5.47;3.00;;;;;;;13.69;98.59;99850.25;5013690;28;20034;-70
2023/11/07 10:36:54;;;;;;;5.40;3.10;;;;;;;13.75;98.47;99843.88;5013679;28;20037;-70
2023/11/07 10:39:23;;;;;;;5.43;2.47;;;;;;;13.78;98.26;99843.38;5013668;28;20026;-70
2023/11/07 10:41:48;;;;;;;5.55;3.00;;;;;;;13.72;98.76;99849.75;5013708;28;20064;-71
2023/11/07 10:44:28;;;;;;;4.68;2.67;;;;;;;13.78;98.43;99857.72;5013404;28;20076;-70
2023/11/07 10:46:57;;;;;;;9.32;2.75;;;;;;;13.72;98.64;99855.16;5013950;28;20033;-70
2023/11/07 10:49:24;;;;;;;5.68;2.88;;;;;;;13.69;97.86;99850.25;5013739;28;20042;-70
2023/11/07 10:51:50;;;;;;;6.30;2.72;;;;;;;13.46;97.74;99824.16;5013490;28;20025;-70
2023/11/07 10:54:19;;;;;;;4.78;3.05;;;;;;;13.56;97.39;99857.59;5013980;28;20107;-70
2023/11/07 10:56:45;;;;;;;5.15;2.53;;;;;;;13.56;97.10;99851.34;5013648;28;20391;-71
2023/11/07 10:59:20;;;;;;;5.03;2.47;;;;;;;13.62;97.10;99853.09;5011923;28;20034;-70
2023/11/07 11:01:47;;;;;;;6.85;2.83;;;;;;;13.58;96.54;99847.34;5011835;28;20038;-70
2023/11/07 11:04:16;;;;;;;6.20;2.75;;;;;;;13.57;96.80;99855.69;5013122;28;20401;-70
2023/11/07 11:06:45;;;;;;;7.90;2.40;;;;;;;13.60;96.84;99861.44;5013078;28;20096;-70
2023/11/07 11:09:11;;;;;;;5.30;2.25;;;;;;;13.69;96.50;99861.06;5012973;28;20022;-70
2023/11/07 11:11:41;;;;;;;9.20;2.83;;;;;;;13.75;96.32;99862.78;5013050;28;20109;-70
2023/11/07 11:14:08;;;;;;;6.53;3.00;;;;;;;13.68;96.15;99845.91;5013076;28;20518;-70
2023/11/07 11:16:39;;;;;;;4.82;2.33;;;;;;;13.80;96.30;99868.28;5011640;28;20033;-70
2023/11/07 11:19:28;;;;;;;3.75;2.20;;;;;;;13.91;95.84;99871.97;5012967;28;20040;-70
2023/11/07 11:22:08;;;;;;;5.82;2.55;;;;;;;13.97;95.56;99861.03;5012730;28;20022;-70
2023/11/07 11:24:58;;;;;;;6.30;2.15;;;;;;;13.99;95.59;99874.31;5012852;28;20032;-70
2023/11/07 11:27:33;;;;;;;3.70;2.05;;;;;;;13.96;96.02;99875.59;5011375;28;20485;-70
2023/11/07 11:29:58;;;;;;;3.20;1.75;;;;;;;14.00;95.44;99871.34;5013078;28;20080;-70